Check out our new PWSWeather beta!
PWSweather.com
Personal Weather Stations
Station Observations
RW002
Arlington, VA 22207

Arlington, VA 22207

Lat: 38.8955, Lon: -77.1443

Elevation: 390

Station Type: Davis Vantage Pro II

jp_angelone@msn.com

High Low Average
Temperature 66.7°F19.3°C 58.2°F14.6°C 61.1°F16.2°C
Dew Point 59.0°F15.0°C 54.1°F12.3°C 56.5°F13.6°C
Winds 5.0 mph 8.0 kmh Calm Calm Calm SECalm SE
Wind Gusts 6.0 mph9.7 kmh -- 1.0 mph1.6 kmh
Humidity 95% 73% 85%
Pressure 30.25 in1024.4 mb 30.00 in1015.9 mb -
Precipitation 0.37 in9.4 mm - -
Hour Temp Dew Point Humidity Winds Wind Gusts Pressure Precip Precip Rate Daily Precip Total
12:02 AM 58.2°F14.6°C 54.7°F12.6°C 88% Calm Calm -- 30.23 in1023.7 mb 0.00 in0.0 mm 0.00 in0.0 mm 0.00 in0.0 mm
12:07 AM 58.3°F14.6°C 54.8°F12.7°C 88% Calm Calm -- 30.23 in1023.7 mb 0.00 in0.0 mm 0.00 in0.0 mm 0.00 in0.0 mm
12:12 AM 58.4°F14.7°C 54.9°F12.7°C 88% Calm Calm -- 30.23 in1023.7 mb 0.00 in0.0 mm 0.00 in0.0 mm 0.00 in0.0 mm
12:17 AM 58.5°F14.7°C 55.0°F12.8°C 88% Calm Calm -- 30.23 in1023.7 mb 0.00 in0.0 mm 0.00 in0.0 mm 0.00 in0.0 mm
12:22 AM 58.6°F14.8°C 55.1°F12.8°C 88% Calm Calm -- 30.23 in1023.7 mb 0.00 in0.0 mm 0.00 in0.0 mm 0.00 in0.0 mm
12:27 AM 58.6°F14.8°C 54.7°F12.6°C 87% Calm Calm -- 30.23 in1023.7 mb 0.00 in0.0 mm 0.00 in0.0 mm 0.00 in0.0 mm
12:32 AM 58.7°F14.8°C 54.8°F12.7°C 87% Calm Calm -- 30.23 in1023.7 mb 0.00 in0.0 mm 0.00 in0.0 mm 0.00 in0.0 mm
12:37 AM 58.9°F14.9°C 55.0°F12.8°C 87% Calm Calm -- 30.23 in1023.7 mb 0.00 in0.0 mm 0.00 in0.0 mm 0.00 in0.0 mm
12:42 AM 58.9°F14.9°C 55.0°F12.8°C 87% Calm Calm -- 30.23 in1023.7 mb 0.00 in0.0 mm 0.00 in0.0 mm 0.00 in0.0 mm
12:47 AM 59.0°F15.0°C 54.8°F12.7°C 86% Calm Calm -- 30.23 in1023.7 mb 0.00 in0.0 mm 0.00 in0.0 mm 0.00 in0.0 mm
12:52 AM 59.0°F15.0°C 54.8°F12.7°C 86% Calm Calm -- 30.23 in1023.7 mb 0.00 in0.0 mm 0.00 in0.0 mm 0.00 in0.0 mm
12:57 AM 59.1°F15.1°C 54.9°F12.7°C 86% Calm Calm -- 30.23 in1023.7 mb 0.00 in0.0 mm 0.00 in0.0 mm 0.00 in0.0 mm
01:02 AM 59.2°F15.1°C 55.0°F12.8°C 86% Calm Calm -- 30.23 in1023.7 mb 0.00 in0.0 mm 0.00 in0.0 mm 0.00 in0.0 mm
01:07 AM 59.2°F15.1°C 55.0°F12.8°C 86% Calm Calm -- 30.23 in1023.7 mb 0.00 in0.0 mm 0.00 in0.0 mm 0.00 in0.0 mm
01:12 AM 59.3°F15.2°C 55.1°F12.8°C 86% Calm Calm -- 30.23 in1023.7 mb 0.00 in0.0 mm 0.00 in0.0 mm 0.00 in0.0 mm
01:17 AM 59.3°F15.2°C 55.1°F12.8°C 86% Calm Calm -- 30.22 in1023.4 mb 0.00 in0.0 mm 0.00 in0.0 mm 0.00 in0.0 mm
01:22 AM 59.4°F15.2°C 55.2°F12.9°C 86% Calm Calm -- 30.22 in1023.4 mb 0.00 in0.0 mm 0.00 in0.0 mm 0.00 in0.0 mm
01:27 AM 59.4°F15.2°C 55.2°F12.9°C 86% Calm Calm -- 30.22 in1023.4 mb 0.00 in0.0 mm 0.00 in0.0 mm 0.00 in0.0 mm
01:32 AM 59.4°F15.2°C 55.2°F12.9°C 86% Calm Calm -- 30.22 in1023.4 mb 0.00 in0.0 mm 0.00 in0.0 mm 0.00 in0.0 mm
01:37 AM 59.5°F15.3°C 55.3°F12.9°C 86% Calm Calm -- 30.22 in1023.4 mb 0.00 in0.0 mm 0.00 in0.0 mm 0.00 in0.0 mm
01:42 AM 59.5°F15.3°C 55.3°F12.9°C 86% Calm Calm -- 30.22 in1023.4 mb 0.00 in0.0 mm 0.00 in0.0 mm 0.00 in0.0 mm
01:47 AM 59.5°F15.3°C 55.3°F12.9°C 86% Calm Calm -- 30.22 in1023.4 mb 0.00 in0.0 mm 0.00 in0.0 mm 0.00 in0.0 mm
01:52 AM 59.5°F15.3°C 55.3°F12.9°C 86% Calm Calm -- 30.22 in1023.4 mb 0.00 in0.0 mm 0.00 in0.0 mm 0.00 in0.0 mm
01:57 AM 59.5°F15.3°C 55.3°F12.9°C 86% Calm Calm -- 30.22 in1023.4 mb 0.00 in0.0 mm 0.00 in0.0 mm 0.00 in0.0 mm
02:02 AM 59.5°F15.3°C 55.3°F12.9°C 86% Calm Calm -- 30.22 in1023.4 mb 0.00 in0.0 mm 0.00 in0.0 mm 0.00 in0.0 mm
02:07 AM 59.5°F15.3°C 55.3°F12.9°C 86% Calm Calm -- 30.22 in1023.4 mb 0.00 in0.0 mm 0.00 in0.0 mm 0.00 in0.0 mm
02:12 AM 59.5°F15.3°C 55.3°F12.9°C 86% Calm Calm -- 30.22 in1023.4 mb 0.00 in0.0 mm 0.00 in0.0 mm 0.00 in0.0 mm
02:17 AM 59.5°F15.3°C 55.3°F12.9°C 86% Calm Calm -- 30.22 in1023.4 mb 0.00 in0.0 mm 0.00 in0.0 mm 0.00 in0.0 mm
02:22 AM 59.5°F15.3°C 55.3°F12.9°C 86% Calm Calm -- 30.22 in1023.4 mb 0.00 in0.0 mm 0.00 in0.0 mm 0.00 in0.0 mm
02:27 AM 59.5°F15.3°C 55.3°F12.9°C 86% Calm Calm -- 30.22 in1023.4 mb 0.00 in0.0 mm 0.00 in0.0 mm 0.00 in0.0 mm
02:32 AM 59.5°F15.3°C 55.3°F12.9°C 86% Calm Calm 1.0 mph1.6 kmh 30.22 in1023.4 mb 0.00 in0.0 mm 0.00 in0.0 mm 0.00 in0.0 mm
02:37 AM 59.5°F15.3°C 55.3°F12.9°C 86% Calm Calm -- 30.22 in1023.4 mb 0.00 in0.0 mm 0.00 in0.0 mm 0.00 in0.0 mm
02:42 AM 59.4°F15.2°C 55.2°F12.9°C 86% Calm Calm -- 30.22 in1023.4 mb 0.00 in0.0 mm 0.00 in0.0 mm 0.00 in0.0 mm
02:47 AM 59.4°F15.2°C 55.2°F12.9°C 86% Calm Calm -- 30.22 in1023.4 mb 0.00 in0.0 mm 0.00 in0.0 mm 0.00 in0.0 mm
02:52 AM 59.4°F15.2°C 55.2°F12.9°C 86% Calm Calm -- 30.22 in1023.4 mb 0.00 in0.0 mm 0.00 in0.0 mm 0.00 in0.0 mm
02:57 AM 59.4°F15.2°C 55.2°F12.9°C 86% Calm Calm 2.0 mph3.2 kmh 30.22 in1023.4 mb 0.00 in0.0 mm 0.00 in0.0 mm 0.00 in0.0 mm
03:02 AM 59.4°F15.2°C 55.2°F12.9°C 86% Calm Calm -- 30.21 in1023.0 mb 0.00 in0.0 mm 0.00 in0.0 mm 0.00 in0.0 mm
03:07 AM 59.4°F15.2°C 55.2°F12.9°C 86% Calm Calm -- 30.22 in1023.4 mb 0.00 in0.0 mm 0.00 in0.0 mm 0.00 in0.0 mm
03:12 AM 59.4°F15.2°C 55.2°F12.9°C 86% Calm Calm -- 30.21 in1023.0 mb 0.00 in0.0 mm 0.00 in0.0 mm 0.00 in0.0 mm
03:17 AM 59.4°F15.2°C 54.9°F12.7°C 85% Calm Calm -- 30.22 in1023.4 mb 0.00 in0.0 mm 0.00 in0.0 mm 0.00 in0.0 mm
03:22 AM 59.4°F15.2°C 54.9°F12.7°C 85% Calm Calm -- 30.22 in1023.4 mb 0.00 in0.0 mm 0.00 in0.0 mm 0.00 in0.0 mm
03:27 AM 59.3°F15.2°C 54.8°F12.7°C 85% Calm Calm -- 30.21 in1023.0 mb 0.00 in0.0 mm 0.00 in0.0 mm 0.00 in0.0 mm
03:32 AM 59.3°F15.2°C 54.5°F12.5°C 84% Calm Calm 3.0 mph4.8 kmh 30.21 in1023.0 mb 0.00 in0.0 mm 0.00 in0.0 mm 0.00 in0.0 mm
03:37 AM 59.3°F15.2°C 54.5°F12.5°C 84% Calm Calm -- 30.21 in1023.0 mb 0.00 in0.0 mm 0.00 in0.0 mm 0.00 in0.0 mm
03:42 AM 59.3°F15.2°C 54.5°F12.5°C 84% Calm Calm 2.0 mph3.2 kmh 30.21 in1023.0 mb 0.00 in0.0 mm 0.00 in0.0 mm 0.00 in0.0 mm
03:47 AM 59.3°F15.2°C 54.5°F12.5°C 84% Calm Calm -- 30.21 in1023.0 mb 0.00 in0.0 mm 0.00 in0.0 mm 0.00 in0.0 mm
03:52 AM 59.3°F15.2°C 54.5°F12.5°C 84% 1.0 mph E1.6 kmh E 1.0 mph1.6 kmh 30.21 in1023.0 mb 0.00 in0.0 mm 0.00 in0.0 mm 0.00 in0.0 mm
03:57 AM 59.4°F15.2°C 54.6°F12.6°C 84% Calm Calm -- 30.22 in1023.4 mb 0.00 in0.0 mm 0.00 in0.0 mm 0.00 in0.0 mm
04:02 AM 59.4°F15.2°C 54.2°F12.3°C 83% Calm Calm -- 30.21 in1023.0 mb 0.00 in0.0 mm 0.00 in0.0 mm 0.00 in0.0 mm
04:07 AM 59.4°F15.2°C 54.2°F12.3°C 83% Calm Calm -- 30.22 in1023.4 mb 0.00 in0.0 mm 0.00 in0.0 mm 0.00 in0.0 mm
04:12 AM 59.4°F15.2°C 54.2°F12.3°C 83% Calm Calm -- 30.21 in1023.0 mb 0.00 in0.0 mm 0.00 in0.0 mm 0.00 in0.0 mm
04:17 AM 59.4°F15.2°C 54.2°F12.3°C 83% Calm Calm -- 30.22 in1023.4 mb 0.00 in0.0 mm 0.00 in0.0 mm 0.00 in0.0 mm
04:22 AM 59.4°F15.2°C 54.2°F12.3°C 83% Calm Calm -- 30.22 in1023.4 mb 0.00 in0.0 mm 0.00 in0.0 mm 0.00 in0.0 mm
04:27 AM 59.3°F15.2°C 54.1°F12.3°C 83% Calm Calm -- 30.22 in1023.4 mb 0.00 in0.0 mm 0.00 in0.0 mm 0.00 in0.0 mm
04:32 AM 59.3°F15.2°C 54.1°F12.3°C 83% Calm Calm -- 30.22 in1023.4 mb 0.00 in0.0 mm 0.00 in0.0 mm 0.00 in0.0 mm
04:37 AM 59.3°F15.2°C 54.5°F12.5°C 84% Calm Calm -- 30.22 in1023.4 mb 0.00 in0.0 mm 0.00 in0.0 mm 0.00 in0.0 mm
04:42 AM 59.3°F15.2°C 54.5°F12.5°C 84% Calm Calm -- 30.22 in1023.4 mb 0.00 in0.0 mm 0.00 in0.0 mm 0.00 in0.0 mm
04:47 AM 59.3°F15.2°C 54.5°F12.5°C 84% Calm Calm -- 30.22 in1023.4 mb 0.00 in0.0 mm 0.00 in0.0 mm 0.00 in0.0 mm
04:52 AM 59.3°F15.2°C 54.5°F12.5°C 84% Calm Calm -- 30.22 in1023.4 mb 0.00 in0.0 mm 0.00 in0.0 mm 0.00 in0.0 mm
04:57 AM 59.3°F15.2°C 54.5°F12.5°C 84% Calm Calm -- 30.22 in1023.4 mb 0.00 in0.0 mm 0.00 in0.0 mm 0.00 in0.0 mm
05:02 AM 59.2°F15.1°C 54.7°F12.6°C 85% Calm Calm -- 30.22 in1023.4 mb 0.00 in0.0 mm 0.00 in0.0 mm 0.00 in0.0 mm
05:07 AM 59.2°F15.1°C 54.7°F12.6°C 85% Calm Calm -- 30.22 in1023.4 mb 0.00 in0.0 mm 0.00 in0.0 mm 0.00 in0.0 mm
05:12 AM 59.3°F15.2°C 54.8°F12.7°C 85% Calm Calm -- 30.22 in1023.4 mb 0.00 in0.0 mm 0.00 in0.0 mm 0.00 in0.0 mm
05:17 AM 59.2°F15.1°C 54.7°F12.6°C 85% Calm Calm -- 30.23 in1023.7 mb 0.00 in0.0 mm 0.00 in0.0 mm 0.00 in0.0 mm
05:22 AM 59.2°F15.1°C 54.7°F12.6°C 85% Calm Calm -- 30.23 in1023.7 mb 0.00 in0.0 mm 0.00 in0.0 mm 0.00 in0.0 mm
05:27 AM 59.3°F15.2°C 54.8°F12.7°C 85% Calm Calm -- 30.23 in1023.7 mb 0.00 in0.0 mm 0.00 in0.0 mm 0.00 in0.0 mm
05:32 AM 59.3°F15.2°C 54.8°F12.7°C 85% Calm Calm -- 30.23 in1023.7 mb 0.00 in0.0 mm 0.00 in0.0 mm 0.00 in0.0 mm
05:37 AM 59.3°F15.2°C 54.8°F12.7°C 85% Calm Calm -- 30.23 in1023.7 mb 0.00 in0.0 mm 0.00 in0.0 mm 0.00 in0.0 mm
05:42 AM 59.2°F15.1°C 54.7°F12.6°C 85% Calm Calm -- 30.23 in1023.7 mb 0.00 in0.0 mm 0.00 in0.0 mm 0.00 in0.0 mm
05:47 AM 59.3°F15.2°C 54.8°F12.7°C 85% Calm Calm -- 30.23 in1023.7 mb 0.00 in0.0 mm 0.00 in0.0 mm 0.00 in0.0 mm
05:52 AM 59.3°F15.2°C 54.8°F12.7°C 85% Calm Calm -- 30.23 in1023.7 mb 0.00 in0.0 mm 0.00 in0.0 mm 0.00 in0.0 mm
05:57 AM 59.2°F15.1°C 54.7°F12.6°C 85% Calm Calm -- 30.23 in1023.7 mb 0.00 in0.0 mm 0.00 in0.0 mm 0.00 in0.0 mm
06:02 AM 59.2°F15.1°C 54.7°F12.6°C 85% Calm Calm -- 30.22 in1023.4 mb 0.00 in0.0 mm 0.00 in0.0 mm 0.00 in0.0 mm
06:07 AM 59.2°F15.1°C 54.7°F12.6°C 85% Calm Calm -- 30.22 in1023.4 mb 0.00 in0.0 mm 0.00 in0.0 mm 0.00 in0.0 mm
06:12 AM 59.2°F15.1°C 55.0°F12.8°C 86% Calm Calm -- 30.22 in1023.4 mb 0.00 in0.0 mm 0.00 in0.0 mm 0.00 in0.0 mm
06:17 AM 59.2°F15.1°C 55.0°F12.8°C 86% Calm Calm -- 30.23 in1023.7 mb 0.00 in0.0 mm 0.00 in0.0 mm 0.00 in0.0 mm
06:22 AM 59.2°F15.1°C 55.0°F12.8°C 86% Calm Calm -- 30.23 in1023.7 mb 0.00 in0.0 mm 0.00 in0.0 mm 0.00 in0.0 mm
06:27 AM 59.1°F15.1°C 54.9°F12.7°C 86% Calm Calm -- 30.23 in1023.7 mb 0.00 in0.0 mm 0.00 in0.0 mm 0.00 in0.0 mm
06:32 AM 59.1°F15.1°C 54.9°F12.7°C 86% Calm Calm -- 30.23 in1023.7 mb 0.00 in0.0 mm 0.00 in0.0 mm 0.00 in0.0 mm
06:37 AM 59.1°F15.1°C 54.9°F12.7°C 86% Calm Calm -- 30.23 in1023.7 mb 0.00 in0.0 mm 0.00 in0.0 mm 0.00 in0.0 mm
06:42 AM 59.2°F15.1°C 55.0°F12.8°C 86% Calm Calm -- 30.23 in1023.7 mb 0.00 in0.0 mm 0.00 in0.0 mm 0.00 in0.0 mm
06:47 AM 59.2°F15.1°C 55.3°F12.9°C 87% Calm Calm -- 30.23 in1023.7 mb 0.00 in0.0 mm 0.00 in0.0 mm 0.00 in0.0 mm
06:52 AM 59.2°F15.1°C 55.3°F12.9°C 87% Calm Calm -- 30.23 in1023.7 mb 0.00 in0.0 mm 0.00 in0.0 mm 0.00 in0.0 mm
06:57 AM 59.3°F15.2°C 55.4°F13.0°C 87% Calm Calm -- 30.23 in1023.7 mb 0.00 in0.0 mm 0.00 in0.0 mm 0.00 in0.0 mm
07:02 AM 59.3°F15.2°C 55.4°F13.0°C 87% Calm Calm -- 30.23 in1023.7 mb 0.00 in0.0 mm 0.00 in0.0 mm 0.00 in0.0 mm
07:07 AM 59.3°F15.2°C 55.4°F13.0°C 87% Calm Calm -- 30.24 in1024.0 mb 0.00 in0.0 mm 0.00 in0.0 mm 0.00 in0.0 mm
07:12 AM 59.4°F15.2°C 55.5°F13.1°C 87% Calm Calm -- 30.24 in1024.0 mb 0.00 in0.0 mm 0.00 in0.0 mm 0.00 in0.0 mm
07:17 AM 59.5°F15.3°C 55.6°F13.1°C 87% Calm Calm -- 30.24 in1024.0 mb 0.00 in0.0 mm 0.00 in0.0 mm 0.00 in0.0 mm
07:22 AM 59.6°F15.3°C 55.7°F13.2°C 87% Calm Calm -- 30.24 in1024.0 mb 0.00 in0.0 mm 0.00 in0.0 mm 0.00 in0.0 mm
07:27 AM 59.7°F15.4°C 55.8°F13.2°C 87% Calm Calm -- 30.25 in1024.4 mb 0.00 in0.0 mm 0.00 in0.0 mm 0.00 in0.0 mm
07:32 AM 59.8°F15.4°C 55.9°F13.3°C 87% Calm Calm -- 30.25 in1024.4 mb 0.00 in0.0 mm 0.00 in0.0 mm 0.00 in0.0 mm
07:37 AM 59.8°F15.4°C 55.9°F13.3°C 87% Calm Calm -- 30.25 in1024.4 mb 0.00 in0.0 mm 0.00 in0.0 mm 0.00 in0.0 mm
07:42 AM 59.9°F15.5°C 56.0°F13.3°C 87% Calm Calm -- 30.25 in1024.4 mb 0.00 in0.0 mm 0.00 in0.0 mm 0.00 in0.0 mm
07:47 AM 60.0°F15.6°C 56.1°F13.4°C 87% Calm Calm -- 30.25 in1024.4 mb 0.00 in0.0 mm 0.00 in0.0 mm 0.00 in0.0 mm
07:52 AM 60.2°F15.7°C 56.0°F13.3°C 86% Calm Calm -- 30.25 in1024.4 mb 0.00 in0.0 mm 0.00 in0.0 mm 0.00 in0.0 mm
07:57 AM 60.3°F15.7°C 56.1°F13.4°C 86% Calm Calm -- 30.25 in1024.4 mb 0.00 in0.0 mm 0.00 in0.0 mm 0.00 in0.0 mm
08:02 AM 60.4°F15.8°C 56.2°F13.4°C 86% Calm Calm -- 30.25 in1024.4 mb 0.00 in0.0 mm 0.00 in0.0 mm 0.00 in0.0 mm
08:07 AM 60.5°F15.8°C 56.3°F13.5°C 86% Calm Calm -- 30.25 in1024.4 mb 0.00 in0.0 mm 0.00 in0.0 mm 0.00 in0.0 mm
08:12 AM 60.5°F15.8°C 56.3°F13.5°C 86% Calm Calm 3.0 mph4.8 kmh 30.25 in1024.4 mb 0.00 in0.0 mm 0.00 in0.0 mm 0.00 in0.0 mm
08:17 AM 60.6°F15.9°C 56.4°F13.6°C 86% Calm Calm 2.0 mph3.2 kmh 30.25 in1024.4 mb 0.00 in0.0 mm 0.00 in0.0 mm 0.00 in0.0 mm
08:22 AM 60.7°F15.9°C 56.2°F13.4°C 85% Calm Calm -- 30.25 in1024.4 mb 0.00 in0.0 mm 0.00 in0.0 mm 0.00 in0.0 mm
08:27 AM 60.9°F16.1°C 56.4°F13.6°C 85% 1.0 mph S1.6 kmh S 3.0 mph4.8 kmh 30.25 in1024.4 mb 0.00 in0.0 mm 0.00 in0.0 mm 0.00 in0.0 mm
08:32 AM 60.9°F16.1°C 56.4°F13.6°C 85% Calm Calm -- 30.25 in1024.4 mb 0.00 in0.0 mm 0.00 in0.0 mm 0.00 in0.0 mm
08:37 AM 61.1°F16.2°C 56.6°F13.7°C 85% Calm Calm -- 30.25 in1024.4 mb 0.00 in0.0 mm 0.00 in0.0 mm 0.00 in0.0 mm
08:42 AM 61.4°F16.3°C 56.5°F13.6°C 84% Calm Calm -- 30.25 in1024.4 mb 0.00 in0.0 mm 0.00 in0.0 mm 0.00 in0.0 mm
08:47 AM 61.6°F16.4°C 56.4°F13.6°C 83% Calm Calm -- 30.25 in1024.4 mb 0.00 in0.0 mm 0.00 in0.0 mm 0.00 in0.0 mm
08:52 AM 61.7°F16.5°C 56.5°F13.6°C 83% Calm Calm -- 30.25 in1024.4 mb 0.00 in0.0 mm 0.00 in0.0 mm 0.00 in0.0 mm
08:57 AM 61.8°F16.6°C 56.6°F13.7°C 83% Calm Calm -- 30.25 in1024.4 mb 0.00 in0.0 mm 0.00 in0.0 mm 0.00 in0.0 mm
09:02 AM 62.0°F16.7°C 56.4°F13.6°C 82% Calm Calm -- 30.25 in1024.4 mb 0.00 in0.0 mm 0.00 in0.0 mm 0.00 in0.0 mm
09:07 AM 62.2°F16.8°C 56.6°F13.7°C 82% Calm Calm -- 30.25 in1024.4 mb 0.00 in0.0 mm 0.00 in0.0 mm 0.00 in0.0 mm
09:12 AM 62.2°F16.8°C 56.6°F13.7°C 82% Calm Calm -- 30.25 in1024.4 mb 0.00 in0.0 mm 0.00 in0.0 mm 0.00 in0.0 mm
09:17 AM 62.3°F16.8°C 56.4°F13.6°C 81% Calm Calm -- 30.25 in1024.4 mb 0.00 in0.0 mm 0.00 in0.0 mm 0.00 in0.0 mm
09:22 AM 62.5°F16.9°C 56.9°F13.8°C 82% Calm Calm 1.0 mph1.6 kmh 30.24 in1024.0 mb 0.00 in0.0 mm 0.00 in0.0 mm 0.00 in0.0 mm
09:27 AM 62.5°F16.9°C 56.9°F13.8°C 82% Calm Calm -- 30.24 in1024.0 mb 0.00 in0.0 mm 0.00 in0.0 mm 0.00 in0.0 mm
09:32 AM 62.5°F16.9°C 56.6°F13.7°C 81% Calm Calm 2.0 mph3.2 kmh 30.24 in1024.0 mb 0.00 in0.0 mm 0.00 in0.0 mm 0.00 in0.0 mm
09:37 AM 62.4°F16.9°C 56.5°F13.6°C 81% Calm Calm -- 30.24 in1024.0 mb 0.00 in0.0 mm 0.00 in0.0 mm 0.00 in0.0 mm
09:42 AM 62.5°F16.9°C 56.6°F13.7°C 81% Calm Calm -- 30.24 in1024.0 mb 0.00 in0.0 mm 0.00 in0.0 mm 0.00 in0.0 mm
09:47 AM 62.7°F17.1°C 56.4°F13.6°C 80% Calm Calm -- 30.24 in1024.0 mb 0.00 in0.0 mm 0.00 in0.0 mm 0.00 in0.0 mm
09:52 AM 62.8°F17.1°C 56.5°F13.6°C 80% Calm Calm 2.0 mph3.2 kmh 30.24 in1024.0 mb 0.00 in0.0 mm 0.00 in0.0 mm 0.00 in0.0 mm
09:57 AM 62.9°F17.2°C 56.6°F13.7°C 80% Calm Calm 1.0 mph1.6 kmh 30.24 in1024.0 mb 0.00 in0.0 mm 0.00 in0.0 mm 0.00 in0.0 mm
10:02 AM 62.9°F17.2°C 56.6°F13.7°C 80% Calm Calm 3.0 mph4.8 kmh 30.24 in1024.0 mb 0.00 in0.0 mm 0.00 in0.0 mm 0.00 in0.0 mm
10:07 AM 63.0°F17.2°C 56.7°F13.7°C 80% Calm Calm -- 30.24 in1024.0 mb 0.00 in0.0 mm 0.00 in0.0 mm 0.00 in0.0 mm
10:12 AM 63.1°F17.3°C 56.8°F13.8°C 80% Calm Calm 2.0 mph3.2 kmh 30.24 in1024.0 mb 0.00 in0.0 mm 0.00 in0.0 mm 0.00 in0.0 mm
10:17 AM 63.2°F17.3°C 56.9°F13.8°C 80% Calm Calm 1.0 mph1.6 kmh 30.24 in1024.0 mb 0.00 in0.0 mm 0.00 in0.0 mm 0.00 in0.0 mm
10:22 AM 63.0°F17.2°C 56.7°F13.7°C 80% Calm Calm -- 30.24 in1024.0 mb 0.00 in0.0 mm 0.00 in0.0 mm 0.00 in0.0 mm
10:27 AM 63.1°F17.3°C 56.8°F13.8°C 80% Calm Calm -- 30.24 in1024.0 mb 0.00 in0.0 mm 0.00 in0.0 mm 0.00 in0.0 mm
10:32 AM 63.4°F17.4°C 57.1°F13.9°C 80% Calm Calm -- 30.23 in1023.7 mb 0.00 in0.0 mm 0.00 in0.0 mm 0.00 in0.0 mm
10:37 AM 63.6°F17.6°C 57.3°F14.1°C 80% 1.0 mph SSE1.6 kmh SSE 1.0 mph1.6 kmh 30.23 in1023.7 mb 0.00 in0.0 mm 0.00 in0.0 mm 0.00 in0.0 mm
10:42 AM 63.6°F17.6°C 57.0°F13.9°C 79% Calm Calm -- 30.22 in1023.4 mb 0.00 in0.0 mm 0.00 in0.0 mm 0.00 in0.0 mm
10:47 AM 63.6°F17.6°C 57.0°F13.9°C 79% Calm Calm -- 30.22 in1023.4 mb 0.00 in0.0 mm 0.00 in0.0 mm 0.00 in0.0 mm
10:52 AM 63.6°F17.6°C 57.0°F13.9°C 79% Calm Calm 1.0 mph1.6 kmh 30.22 in1023.4 mb 0.00 in0.0 mm 0.00 in0.0 mm 0.00 in0.0 mm
10:57 AM 63.6°F17.6°C 57.0°F13.9°C 79% 3.0 mph S4.8 kmh S 3.0 mph4.8 kmh 30.22 in1023.4 mb 0.00 in0.0 mm 0.00 in0.0 mm 0.00 in0.0 mm
11:02 AM 63.5°F17.5°C 56.9°F13.8°C 79% Calm Calm 2.0 mph3.2 kmh 30.22 in1023.4 mb 0.00 in0.0 mm 0.00 in0.0 mm 0.00 in0.0 mm
11:07 AM 63.6°F17.6°C 57.3°F14.1°C 80% Calm Calm -- 30.22 in1023.4 mb 0.00 in0.0 mm 0.00 in0.0 mm 0.00 in0.0 mm
11:12 AM 63.8°F17.7°C 57.2°F14.0°C 79% Calm Calm -- 30.22 in1023.4 mb 0.00 in0.0 mm 0.00 in0.0 mm 0.00 in0.0 mm
11:17 AM 63.8°F17.7°C 56.8°F13.8°C 78% Calm Calm -- 30.22 in1023.4 mb 0.00 in0.0 mm 0.00 in0.0 mm 0.00 in0.0 mm
11:22 AM 63.8°F17.7°C 56.8°F13.8°C 78% Calm Calm -- 30.21 in1023.0 mb 0.00 in0.0 mm 0.00 in0.0 mm 0.00 in0.0 mm
11:27 AM 63.8°F17.7°C 56.8°F13.8°C 78% Calm Calm 1.0 mph1.6 kmh 30.21 in1023.0 mb 0.00 in0.0 mm 0.00 in0.0 mm 0.00 in0.0 mm
11:32 AM 63.9°F17.7°C 56.9°F13.8°C 78% Calm Calm 4.0 mph6.4 kmh 30.21 in1023.0 mb 0.00 in0.0 mm 0.00 in0.0 mm 0.00 in0.0 mm
11:37 AM 63.7°F17.6°C 56.7°F13.7°C 78% Calm Calm -- 30.20 in1022.7 mb 0.00 in0.0 mm 0.00 in0.0 mm 0.00 in0.0 mm
11:42 AM 63.7°F17.6°C 57.1°F13.9°C 79% Calm Calm -- 30.20 in1022.7 mb 0.00 in0.0 mm 0.00 in0.0 mm 0.00 in0.0 mm
11:47 AM 63.7°F17.6°C 57.1°F13.9°C 79% Calm Calm 2.0 mph3.2 kmh 30.20 in1022.7 mb 0.00 in0.0 mm 0.00 in0.0 mm 0.00 in0.0 mm
11:52 AM 63.8°F17.7°C 57.2°F14.0°C 79% Calm Calm -- 30.19 in1022.4 mb 0.00 in0.0 mm 0.00 in0.0 mm 0.00 in0.0 mm
11:57 AM 64.0°F17.8°C 57.0°F13.9°C 78% Calm Calm 1.0 mph1.6 kmh 30.19 in1022.4 mb 0.00 in0.0 mm 0.00 in0.0 mm 0.00 in0.0 mm
12:02 PM 64.1°F17.8°C 57.1°F13.9°C 78% Calm Calm -- 30.19 in1022.4 mb 0.00 in0.0 mm 0.00 in0.0 mm 0.00 in0.0 mm
12:07 PM 64.3°F17.9°C 57.3°F14.1°C 78% Calm Calm -- 30.19 in1022.4 mb 0.00 in0.0 mm 0.00 in0.0 mm 0.00 in0.0 mm
12:12 PM 64.5°F18.1°C 57.1°F13.9°C 77% Calm Calm -- 30.19 in1022.4 mb 0.00 in0.0 mm 0.00 in0.0 mm 0.00 in0.0 mm
12:17 PM 64.4°F18.0°C 57.0°F13.9°C 77% Calm Calm 1.0 mph1.6 kmh 30.18 in1022.0 mb 0.00 in0.0 mm 0.00 in0.0 mm 0.00 in0.0 mm
12:22 PM 64.5°F18.1°C 57.1°F13.9°C 77% 2.0 mph S3.2 kmh S 3.0 mph4.8 kmh 30.18 in1022.0 mb 0.00 in0.0 mm 0.00 in0.0 mm 0.00 in0.0 mm
12:27 PM 64.4°F18.0°C 57.0°F13.9°C 77% Calm Calm -- 30.18 in1022.0 mb 0.00 in0.0 mm 0.00 in0.0 mm 0.00 in0.0 mm
12:32 PM 64.3°F17.9°C 56.9°F13.8°C 77% Calm Calm -- 30.18 in1022.0 mb 0.00 in0.0 mm 0.00 in0.0 mm 0.00 in0.0 mm
12:37 PM 64.8°F18.2°C 57.4°F14.1°C 77% Calm Calm 1.0 mph1.6 kmh 30.17 in1021.7 mb 0.00 in0.0 mm 0.00 in0.0 mm 0.00 in0.0 mm
12:42 PM 65.1°F18.4°C 57.7°F14.3°C 77% Calm Calm -- 30.17 in1021.7 mb 0.00 in0.0 mm 0.00 in0.0 mm 0.00 in0.0 mm
12:47 PM 65.3°F18.5°C 57.5°F14.2°C 76% Calm Calm -- 30.17 in1021.7 mb 0.00 in0.0 mm 0.00 in0.0 mm 0.00 in0.0 mm
12:52 PM 65.8°F18.8°C 58.0°F14.4°C 76% Calm Calm -- 30.16 in1021.3 mb 0.00 in0.0 mm 0.00 in0.0 mm 0.00 in0.0 mm
12:57 PM 66.4°F19.1°C 58.2°F14.6°C 75% Calm Calm 3.0 mph4.8 kmh 30.16 in1021.3 mb 0.00 in0.0 mm 0.00 in0.0 mm 0.00 in0.0 mm
01:02 PM 66.5°F19.2°C 58.3°F14.6°C 75% Calm Calm 1.0 mph1.6 kmh 30.16 in1021.3 mb 0.00 in0.0 mm 0.00 in0.0 mm 0.00 in0.0 mm
01:07 PM 66.7°F19.3°C 58.1°F14.5°C 74% Calm Calm -- 30.16 in1021.3 mb 0.00 in0.0 mm 0.00 in0.0 mm 0.00 in0.0 mm
01:12 PM 66.7°F19.3°C 57.8°F14.3°C 73% 1.0 mph S1.6 kmh S 3.0 mph4.8 kmh 30.16 in1021.3 mb 0.00 in0.0 mm 0.00 in0.0 mm 0.00 in0.0 mm
01:17 PM 66.4°F19.1°C 57.9°F14.4°C 74% Calm Calm -- 30.15 in1021.0 mb 0.00 in0.0 mm 0.00 in0.0 mm 0.00 in0.0 mm
01:22 PM 66.4°F19.1°C 57.9°F14.4°C 74% Calm Calm -- 30.15 in1021.0 mb 0.00 in0.0 mm 0.00 in0.0 mm 0.00 in0.0 mm
01:27 PM 66.4°F19.1°C 58.2°F14.6°C 75% Calm Calm -- 30.15 in1021.0 mb 0.00 in0.0 mm 0.00 in0.0 mm 0.00 in0.0 mm
01:32 PM 66.1°F18.9°C 57.9°F14.4°C 75% Calm Calm 5.0 mph8.0 kmh 30.15 in1021.0 mb 0.00 in0.0 mm 0.00 in0.0 mm 0.00 in0.0 mm
01:37 PM 66.1°F18.9°C 57.9°F14.4°C 75% Calm Calm 1.0 mph1.6 kmh 30.15 in1021.0 mb 0.00 in0.0 mm 0.00 in0.0 mm 0.00 in0.0 mm
01:42 PM 66.1°F18.9°C 57.9°F14.4°C 75% Calm Calm 5.0 mph8.0 kmh 30.15 in1021.0 mb 0.00 in0.0 mm 0.00 in0.0 mm 0.00 in0.0 mm
01:47 PM 65.9°F18.8°C 58.1°F14.5°C 76% Calm Calm 1.0 mph1.6 kmh 30.15 in1021.0 mb 0.00 in0.0 mm 0.00 in0.0 mm 0.00 in0.0 mm
01:52 PM 65.8°F18.8°C 58.0°F14.4°C 76% Calm Calm -- 30.15 in1021.0 mb 0.00 in0.0 mm 0.00 in0.0 mm 0.00 in0.0 mm
01:57 PM 65.8°F18.8°C 58.0°F14.4°C 76% 3.0 mph S4.8 kmh S 3.0 mph4.8 kmh 30.15 in1021.0 mb 0.00 in0.0 mm 0.00 in0.0 mm 0.00 in0.0 mm
02:07 PM 65.9°F18.8°C 58.1°F14.5°C 76% Calm Calm -- 30.14 in1020.7 mb 0.00 in0.0 mm 0.00 in0.0 mm 0.00 in0.0 mm
02:12 PM 65.9°F18.8°C 58.1°F14.5°C 76% Calm Calm 4.0 mph6.4 kmh 30.14 in1020.7 mb 0.00 in0.0 mm 0.00 in0.0 mm 0.00 in0.0 mm
02:17 PM 65.8°F18.8°C 58.0°F14.4°C 76% 1.0 mph S1.6 kmh S 4.0 mph6.4 kmh 30.14 in1020.7 mb 0.00 in0.0 mm 0.00 in0.0 mm 0.00 in0.0 mm
02:22 PM 65.6°F18.7°C 57.8°F14.3°C 76% 1.0 mph S1.6 kmh S 4.0 mph6.4 kmh 30.14 in1020.7 mb 0.00 in0.0 mm 0.00 in0.0 mm 0.00 in0.0 mm
02:27 PM 65.5°F18.6°C 58.1°F14.5°C 77% Calm Calm 4.0 mph6.4 kmh 30.14 in1020.7 mb 0.00 in0.0 mm 0.00 in0.0 mm 0.00 in0.0 mm
02:32 PM 65.6°F18.7°C 57.8°F14.3°C 76% Calm Calm 3.0 mph4.8 kmh 30.14 in1020.7 mb 0.00 in0.0 mm 0.00 in0.0 mm 0.00 in0.0 mm
02:37 PM 65.6°F18.7°C 57.8°F14.3°C 76% Calm Calm 4.0 mph6.4 kmh 30.14 in1020.7 mb 0.00 in0.0 mm 0.00 in0.0 mm 0.00 in0.0 mm
02:42 PM 65.5°F18.6°C 58.1°F14.5°C 77% Calm Calm 3.0 mph4.8 kmh 30.14 in1020.7 mb 0.00 in0.0 mm 0.00 in0.0 mm 0.00 in0.0 mm
02:47 PM 65.4°F18.6°C 58.0°F14.4°C 77% 3.0 mph SSE4.8 kmh SSE 3.0 mph4.8 kmh 30.14 in1020.7 mb 0.00 in0.0 mm 0.00 in0.0 mm 0.00 in0.0 mm
02:52 PM 65.4°F18.6°C 58.0°F14.4°C 77% Calm Calm -- 30.14 in1020.7 mb 0.00 in0.0 mm 0.00 in0.0 mm 0.00 in0.0 mm
02:57 PM 65.4°F18.6°C 58.0°F14.4°C 77% Calm Calm -- 30.14 in1020.7 mb 0.00 in0.0 mm 0.00 in0.0 mm 0.00 in0.0 mm
03:02 PM 65.4°F18.6°C 58.0°F14.4°C 77% Calm Calm -- 30.14 in1020.7 mb 0.00 in0.0 mm 0.00 in0.0 mm 0.00 in0.0 mm
03:07 PM 65.3°F18.5°C 57.9°F14.4°C 77% Calm Calm 3.0 mph4.8 kmh 30.13 in1020.3 mb 0.00 in0.0 mm 0.00 in0.0 mm 0.00 in0.0 mm
03:12 PM 65.1°F18.4°C 57.7°F14.3°C 77% Calm Calm 3.0 mph4.8 kmh 30.14 in1020.7 mb 0.00 in0.0 mm 0.00 in0.0 mm 0.00 in0.0 mm
03:17 PM 65.0°F18.3°C 58.0°F14.4°C 78% Calm Calm -- 30.13 in1020.3 mb 0.00 in0.0 mm 0.00 in0.0 mm 0.00 in0.0 mm
03:22 PM 65.0°F18.3°C 58.0°F14.4°C 78% Calm Calm -- 30.13 in1020.3 mb 0.00 in0.0 mm 0.00 in0.0 mm 0.00 in0.0 mm
03:27 PM 64.9°F18.3°C 57.9°F14.4°C 78% Calm Calm -- 30.13 in1020.3 mb 0.00 in0.0 mm 0.00 in0.0 mm 0.00 in0.0 mm
03:32 PM 64.9°F18.3°C 57.9°F14.4°C 78% Calm Calm -- 30.13 in1020.3 mb 0.00 in0.0 mm 0.00 in0.0 mm 0.00 in0.0 mm
03:37 PM 64.9°F18.3°C 57.9°F14.4°C 78% Calm Calm 4.0 mph6.4 kmh 30.13 in1020.3 mb 0.00 in0.0 mm 0.00 in0.0 mm 0.00 in0.0 mm
03:42 PM 64.9°F18.3°C 57.9°F14.4°C 78% Calm Calm -- 30.13 in1020.3 mb 0.00 in0.0 mm 0.00 in0.0 mm 0.00 in0.0 mm
03:47 PM 64.8°F18.2°C 57.8°F14.3°C 78% Calm Calm 2.0 mph3.2 kmh 30.13 in1020.3 mb 0.00 in0.0 mm 0.00 in0.0 mm 0.00 in0.0 mm
03:52 PM 64.8°F18.2°C 57.8°F14.3°C 78% Calm Calm 3.0 mph4.8 kmh 30.13 in1020.3 mb 0.00 in0.0 mm 0.00 in0.0 mm 0.00 in0.0 mm
03:57 PM 64.8°F18.2°C 58.1°F14.5°C 79% Calm Calm -- 30.13 in1020.3 mb 0.00 in0.0 mm 0.00 in0.0 mm 0.00 in0.0 mm
04:02 PM 64.7°F18.2°C 58.0°F14.4°C 79% Calm Calm -- 30.13 in1020.3 mb 0.00 in0.0 mm 0.00 in0.0 mm 0.00 in0.0 mm
04:07 PM 64.7°F18.2°C 58.0°F14.4°C 79% Calm Calm -- 30.13 in1020.3 mb 0.00 in0.0 mm 0.00 in0.0 mm 0.00 in0.0 mm
04:12 PM 64.7°F18.2°C 58.0°F14.4°C 79% Calm Calm -- 30.12 in1020.0 mb 0.00 in0.0 mm 0.00 in0.0 mm 0.00 in0.0 mm
04:17 PM 64.6°F18.1°C 57.9°F14.4°C 79% Calm Calm 5.0 mph8.0 kmh 30.12 in1020.0 mb 0.00 in0.0 mm 0.00 in0.0 mm 0.00 in0.0 mm
04:22 PM 64.6°F18.1°C 57.9°F14.4°C 79% Calm Calm -- 30.12 in1020.0 mb 0.00 in0.0 mm 0.00 in0.0 mm 0.00 in0.0 mm
04:27 PM 64.5°F18.1°C 58.2°F14.6°C 80% Calm Calm -- 30.12 in1020.0 mb 0.00 in0.0 mm 0.00 in0.0 mm 0.00 in0.0 mm
04:32 PM 64.4°F18.0°C 58.4°F14.7°C 81% Calm Calm -- 30.12 in1020.0 mb 0.00 in0.0 mm 0.00 in0.0 mm 0.00 in0.0 mm
04:37 PM 64.3°F17.9°C 58.7°F14.8°C 82% Calm Calm 1.0 mph1.6 kmh 30.12 in1020.0 mb 0.00 in0.0 mm 0.00 in0.0 mm 0.00 in0.0 mm
04:42 PM 64.0°F17.8°C 58.7°F14.8°C 83% Calm Calm -- 30.12 in1020.0 mb 0.00 in0.0 mm 0.00 in0.0 mm 0.00 in0.0 mm
04:47 PM 63.8°F17.7°C 58.9°F14.9°C 84% Calm Calm -- 30.12 in1020.0 mb 0.00 in0.0 mm 0.00 in0.0 mm 0.00 in0.0 mm
04:52 PM 63.4°F17.4°C 58.8°F14.9°C 85% Calm Calm 5.0 mph8.0 kmh 30.12 in1020.0 mb 0.09 in2.3 mm 1.08 in27.4 mm 0.01 in0.3 mm
04:57 PM 63.1°F17.3°C 58.8°F14.9°C 86% Calm Calm -- 30.12 in1020.0 mb 0.09 in2.3 mm 0.00 in0.0 mm 0.02 in0.5 mm
05:02 PM 62.8°F17.1°C 58.9°F14.9°C 87% Calm Calm 2.0 mph3.2 kmh 30.12 in1020.0 mb 0.09 in2.3 mm 0.00 in0.0 mm 0.03 in0.8 mm
05:07 PM 62.5°F16.9°C 58.9°F14.9°C 88% Calm Calm -- 30.12 in1020.0 mb 0.12 in3.0 mm 0.36 in9.1 mm 0.04 in1.0 mm
05:12 PM 62.3°F16.8°C 59.0°F15.0°C 89% Calm Calm -- 30.11 in1019.6 mb 0.14 in3.6 mm 0.24 in6.1 mm 0.05 in1.3 mm
05:17 PM 62.0°F16.7°C 58.7°F14.8°C 89% Calm Calm -- 30.11 in1019.6 mb 0.13 in3.3 mm 0.00 in0.0 mm 0.06 in1.5 mm
05:22 PM 61.8°F16.6°C 58.8°F14.9°C 90% Calm Calm -- 30.11 in1019.6 mb 0.12 in3.0 mm 0.00 in0.0 mm 0.07 in1.8 mm
05:27 PM 61.6°F16.4°C 58.6°F14.8°C 90% Calm Calm -- 30.11 in1019.6 mb 0.11 in2.8 mm 0.00 in0.0 mm 0.08 in2.0 mm
05:32 PM 61.4°F16.3°C 58.4°F14.7°C 90% Calm Calm -- 30.11 in1019.6 mb 0.07 in1.8 mm 0.00 in0.0 mm 0.08 in2.0 mm
05:37 PM 61.3°F16.3°C 58.6°F14.8°C 91% Calm Calm -- 30.11 in1019.6 mb 0.06 in1.5 mm 0.00 in0.0 mm 0.09 in2.3 mm
05:42 PM 61.2°F16.2°C 58.5°F14.7°C 91% Calm Calm 3.0 mph4.8 kmh 30.11 in1019.6 mb 0.06 in1.5 mm 0.00 in0.0 mm 0.09 in2.3 mm
05:47 PM 61.0°F16.1°C 58.4°F14.7°C 91% Calm Calm 1.0 mph1.6 kmh 30.11 in1019.6 mb 0.04 in1.0 mm 0.00 in0.0 mm 0.09 in2.3 mm
05:52 PM 60.9°F16.1°C 58.3°F14.6°C 91% Calm Calm -- 30.11 in1019.6 mb 0.04 in1.0 mm 0.00 in0.0 mm 0.10 in2.5 mm
05:57 PM 60.7°F15.9°C 58.1°F14.5°C 91% Calm Calm -- 30.11 in1019.6 mb 0.04 in1.0 mm 0.00 in0.0 mm 0.10 in2.5 mm
06:02 PM 60.6°F15.9°C 58.0°F14.4°C 91% Calm Calm -- 30.11 in1019.6 mb 0.04 in1.0 mm 0.00 in0.0 mm 0.10 in2.5 mm
06:07 PM 60.4°F15.8°C 58.1°F14.5°C 92% Calm Calm -- 30.11 in1019.6 mb 0.04 in1.0 mm 0.00 in0.0 mm 0.11 in2.8 mm
06:12 PM 60.2°F15.7°C 57.9°F14.4°C 92% Calm Calm -- 30.11 in1019.6 mb 0.06 in1.5 mm 0.24 in6.1 mm 0.11 in2.8 mm
06:17 PM 60.0°F15.6°C 57.7°F14.3°C 92% Calm Calm -- 30.10 in1019.3 mb 0.06 in1.5 mm 0.00 in0.0 mm 0.12 in3.0 mm
06:22 PM 59.9°F15.5°C 57.6°F14.2°C 92% Calm Calm -- 30.10 in1019.3 mb 0.10 in2.5 mm 0.48 in12.2 mm 0.13 in3.3 mm
06:27 PM 59.8°F15.4°C 57.5°F14.2°C 92% Calm Calm -- 30.10 in1019.3 mb 0.10 in2.5 mm 0.00 in0.0 mm 0.14 in3.6 mm
06:32 PM 59.6°F15.3°C 57.3°F14.1°C 92% Calm Calm 3.0 mph4.8 kmh 30.10 in1019.3 mb 0.09 in2.3 mm 0.00 in0.0 mm 0.14 in3.6 mm
06:37 PM 59.6°F15.3°C 57.3°F14.1°C 92% Calm Calm 2.0 mph3.2 kmh 30.10 in1019.3 mb 0.08 in2.0 mm 0.00 in0.0 mm 0.15 in3.8 mm
06:42 PM 59.5°F15.3°C 57.2°F14.0°C 92% Calm Calm 2.0 mph3.2 kmh 30.10 in1019.3 mb 0.05 in1.3 mm 0.00 in0.0 mm 0.15 in3.8 mm
06:47 PM 59.4°F15.2°C 57.1°F13.9°C 92% Calm Calm -- 30.10 in1019.3 mb 0.04 in1.0 mm 0.00 in0.0 mm 0.16 in4.1 mm
06:52 PM 59.4°F15.2°C 57.1°F13.9°C 92% Calm Calm -- 30.10 in1019.3 mb 0.04 in1.0 mm 0.00 in0.0 mm 0.16 in4.1 mm
06:57 PM 59.4°F15.2°C 57.1°F13.9°C 92% Calm Calm -- 30.10 in1019.3 mb 0.05 in1.3 mm 0.12 in3.0 mm 0.16 in4.1 mm
07:02 PM 59.3°F15.2°C 57.0°F13.9°C 92% Calm Calm 2.0 mph3.2 kmh 30.09 in1019.0 mb 0.05 in1.3 mm 0.00 in0.0 mm 0.17 in4.3 mm
07:07 PM 59.2°F15.1°C 56.9°F13.8°C 92% Calm Calm 1.0 mph1.6 kmh 30.09 in1019.0 mb 0.05 in1.3 mm 0.00 in0.0 mm 0.17 in4.3 mm
07:12 PM 59.2°F15.1°C 56.9°F13.8°C 92% Calm Calm 1.0 mph1.6 kmh 30.09 in1019.0 mb 0.04 in1.0 mm 0.00 in0.0 mm 0.17 in4.3 mm
07:17 PM 59.0°F15.0°C 56.7°F13.7°C 92% Calm Calm 1.0 mph1.6 kmh 30.09 in1019.0 mb 0.04 in1.0 mm 0.00 in0.0 mm 0.18 in4.6 mm
07:22 PM 59.0°F15.0°C 56.7°F13.7°C 92% Calm Calm -- 30.09 in1019.0 mb 0.08 in2.0 mm 0.48 in12.2 mm 0.19 in4.8 mm
07:27 PM 58.9°F14.9°C 56.6°F13.7°C 92% Calm Calm 1.0 mph1.6 kmh 30.09 in1019.0 mb 0.10 in2.5 mm 0.24 in6.1 mm 0.20 in5.1 mm
07:32 PM 58.9°F14.9°C 56.6°F13.7°C 92% Calm Calm -- 30.08 in1018.6 mb 0.08 in2.0 mm 0.00 in0.0 mm 0.20 in5.1 mm
07:37 PM 58.8°F14.9°C 56.5°F13.6°C 92% Calm Calm -- 30.08 in1018.6 mb 0.08 in2.0 mm 0.00 in0.0 mm 0.21 in5.3 mm
07:42 PM 58.8°F14.9°C 56.5°F13.6°C 92% Calm Calm 1.0 mph1.6 kmh 30.08 in1018.6 mb 0.06 in1.5 mm 0.00 in0.0 mm 0.21 in5.3 mm
07:47 PM 58.8°F14.9°C 56.5°F13.6°C 92% Calm Calm 4.0 mph6.4 kmh 30.08 in1018.6 mb 0.04 in1.0 mm 0.00 in0.0 mm 0.21 in5.3 mm
07:52 PM 58.8°F14.9°C 56.5°F13.6°C 92% Calm Calm 2.0 mph3.2 kmh 30.08 in1018.6 mb 0.04 in1.0 mm 0.00 in0.0 mm 0.22 in5.6 mm
07:57 PM 58.8°F14.9°C 56.5°F13.6°C 92% Calm Calm -- 30.08 in1018.6 mb 0.04 in1.0 mm 0.00 in0.0 mm 0.22 in5.6 mm
08:02 PM 58.8°F14.9°C 56.5°F13.6°C 92% Calm Calm -- 30.08 in1018.6 mb 0.04 in1.0 mm 0.00 in0.0 mm 0.22 in5.6 mm
08:07 PM 58.8°F14.9°C 56.5°F13.6°C 92% Calm Calm 5.0 mph8.0 kmh 30.07 in1018.3 mb 0.00 in0.0 mm 0.00 in0.0 mm 0.22 in5.6 mm
08:12 PM 58.8°F14.9°C 56.5°F13.6°C 92% Calm Calm -- 30.07 in1018.3 mb 0.00 in0.0 mm 0.00 in0.0 mm 0.23 in5.8 mm
08:17 PM 58.8°F14.9°C 56.5°F13.6°C 92% Calm Calm -- 30.08 in1018.6 mb 0.08 in2.0 mm 0.96 in24.4 mm 0.23 in5.8 mm
08:22 PM 58.8°F14.9°C 56.5°F13.6°C 92% Calm Calm 2.0 mph3.2 kmh 30.08 in1018.6 mb 0.08 in2.0 mm 0.00 in0.0 mm 0.24 in6.1 mm
08:27 PM 58.8°F14.9°C 56.5°F13.6°C 92% Calm Calm -- 30.08 in1018.6 mb 0.07 in1.8 mm 0.00 in0.0 mm 0.24 in6.1 mm
08:32 PM 58.8°F14.9°C 56.5°F13.6°C 92% Calm Calm -- 30.08 in1018.6 mb 0.09 in2.3 mm 0.24 in6.1 mm 0.25 in6.4 mm
08:37 PM 58.8°F14.9°C 56.5°F13.6°C 92% Calm Calm -- 30.07 in1018.3 mb 0.09 in2.3 mm 0.00 in0.0 mm 0.26 in6.6 mm
08:42 PM 58.8°F14.9°C 56.5°F13.6°C 92% 1.0 mph SSE1.6 kmh SSE 3.0 mph4.8 kmh 30.07 in1018.3 mb 0.09 in2.3 mm 0.00 in0.0 mm 0.27 in6.9 mm
08:47 PM 58.9°F14.9°C 56.6°F13.7°C 92% Calm Calm 2.0 mph3.2 kmh 30.08 in1018.6 mb 0.10 in2.5 mm 0.12 in3.0 mm 0.28 in7.1 mm
08:52 PM 58.9°F14.9°C 56.6°F13.7°C 92% Calm Calm 2.0 mph3.2 kmh 30.07 in1018.3 mb 0.08 in2.0 mm 0.00 in0.0 mm 0.28 in7.1 mm
08:57 PM 58.9°F14.9°C 56.6°F13.7°C 92% Calm Calm -- 30.08 in1018.6 mb 0.11 in2.8 mm 0.36 in9.1 mm 0.29 in7.4 mm
09:02 PM 58.9°F14.9°C 56.6°F13.7°C 92% Calm Calm 1.0 mph1.6 kmh 30.07 in1018.3 mb 0.11 in2.8 mm 0.00 in0.0 mm 0.30 in7.6 mm
09:07 PM 58.9°F14.9°C 56.6°F13.7°C 92% Calm Calm 3.0 mph4.8 kmh 30.07 in1018.3 mb 0.06 in1.5 mm 0.00 in0.0 mm 0.30 in7.6 mm
09:12 PM 58.9°F14.9°C 56.6°F13.7°C 92% Calm Calm -- 30.07 in1018.3 mb 0.04 in1.0 mm 0.00 in0.0 mm 0.30 in7.6 mm
09:17 PM 58.8°F14.9°C 56.5°F13.6°C 92% Calm Calm 4.0 mph6.4 kmh 30.07 in1018.3 mb 0.04 in1.0 mm 0.00 in0.0 mm 0.31 in7.9 mm
09:22 PM 58.8°F14.9°C 56.8°F13.8°C 93% Calm Calm 1.0 mph1.6 kmh 30.07 in1018.3 mb 0.04 in1.0 mm 0.00 in0.0 mm 0.31 in7.9 mm
09:27 PM 58.8°F14.9°C 56.5°F13.6°C 92% Calm Calm 5.0 mph8.0 kmh 30.07 in1018.3 mb 0.05 in1.3 mm 0.12 in3.0 mm 0.32 in8.1 mm
09:32 PM 58.8°F14.9°C 56.5°F13.6°C 92% 3.0 mph S4.8 kmh S 5.0 mph8.0 kmh 30.07 in1018.3 mb 0.05 in1.3 mm 0.00 in0.0 mm 0.32 in8.1 mm
09:37 PM 58.8°F14.9°C 56.8°F13.8°C 93% 5.0 mph S8.0 kmh S 5.0 mph8.0 kmh 30.07 in1018.3 mb 0.27 in6.9 mm 2.64 in67.1 mm 0.33 in8.4 mm
09:42 PM 58.8°F14.9°C 56.8°F13.8°C 93% Calm Calm -- 30.06 in1017.9 mb 0.15 in3.8 mm 0.00 in0.0 mm 0.35 in8.9 mm
09:47 PM 58.8°F14.9°C 56.8°F13.8°C 93% Calm Calm 4.0 mph6.4 kmh 30.06 in1017.9 mb 0.10 in2.5 mm 0.00 in0.0 mm 0.36 in9.1 mm
09:52 PM 58.8°F14.9°C 56.8°F13.8°C 93% Calm Calm 2.0 mph3.2 kmh 30.06 in1017.9 mb 0.13 in3.3 mm 0.36 in9.1 mm 0.37 in9.4 mm
09:57 PM 58.9°F14.9°C 56.9°F13.8°C 93% Calm Calm -- 30.05 in1017.6 mb 0.07 in1.8 mm 0.00 in0.0 mm 0.37 in9.4 mm
10:02 PM 58.9°F14.9°C 56.9°F13.8°C 93% Calm Calm 2.0 mph3.2 kmh 30.05 in1017.6 mb 0.04 in1.0 mm 0.00 in0.0 mm 0.37 in9.4 mm
10:07 PM 58.9°F14.9°C 56.9°F13.8°C 93% Calm Calm -- 30.05 in1017.6 mb 0.00 in0.0 mm 0.00 in0.0 mm 0.37 in9.4 mm
10:12 PM 58.9°F14.9°C 56.9°F13.8°C 93% Calm Calm -- 30.04 in1017.3 mb 0.00 in0.0 mm 0.00 in0.0 mm 0.37 in9.4 mm
10:17 PM 58.9°F14.9°C 56.9°F13.8°C 93% Calm Calm -- 30.05 in1017.6 mb 0.00 in0.0 mm 0.00 in0.0 mm 0.37 in9.4 mm
10:22 PM 58.9°F14.9°C 56.9°F13.8°C 93% Calm Calm 1.0 mph1.6 kmh 30.04 in1017.3 mb 0.00 in0.0 mm 0.00 in0.0 mm 0.37 in9.4 mm
10:27 PM 58.9°F14.9°C 56.9°F13.8°C 93% Calm Calm -- 30.04 in1017.3 mb 0.00 in0.0 mm 0.00 in0.0 mm 0.37 in9.4 mm
10:32 PM 58.9°F14.9°C 56.9°F13.8°C 93% Calm Calm 2.0 mph3.2 kmh 30.04 in1017.3 mb 0.00 in0.0 mm 0.00 in0.0 mm 0.37 in9.4 mm
10:37 PM 58.9°F14.9°C 56.9°F13.8°C 93% Calm Calm 4.0 mph6.4 kmh 30.03 in1016.9 mb 0.00 in0.0 mm 0.00 in0.0 mm 0.37 in9.4 mm
10:42 PM 58.9°F14.9°C 56.9°F13.8°C 93% Calm Calm -- 30.03 in1016.9 mb 0.00 in0.0 mm 0.00 in0.0 mm 0.37 in9.4 mm
10:47 PM 58.9°F14.9°C 56.9°F13.8°C 93% Calm Calm 2.0 mph3.2 kmh 30.03 in1016.9 mb 0.00 in0.0 mm 0.00 in0.0 mm 0.37 in9.4 mm
10:52 PM 58.9°F14.9°C 56.9°F13.8°C 93% Calm Calm -- 30.02 in1016.6 mb 0.00 in0.0 mm 0.00 in0.0 mm 0.37 in9.4 mm
10:57 PM 58.9°F14.9°C 56.9°F13.8°C 93% Calm Calm -- 30.02 in1016.6 mb 0.00 in0.0 mm 0.00 in0.0 mm 0.37 in9.4 mm
11:02 PM 58.9°F14.9°C 56.9°F13.8°C 93% Calm Calm -- 30.02 in1016.6 mb 0.00 in0.0 mm 0.00 in0.0 mm 0.67 in17.0 mm
11:07 PM 59.0°F15.0°C 57.0°F13.9°C 93% Calm Calm -- 30.02 in1016.6 mb 0.00 in0.0 mm 0.00 in0.0 mm 0.67 in17.0 mm
11:12 PM 59.0°F15.0°C 57.6°F14.2°C 95% Calm Calm 6.0 mph9.7 kmh 30.02 in1016.6 mb 0.00 in0.0 mm 0.00 in0.0 mm 0.67 in17.0 mm
11:17 PM 59.0°F15.0°C 57.0°F13.9°C 93% Calm Calm 2.0 mph3.2 kmh 30.02 in1016.6 mb 0.00 in0.0 mm 0.00 in0.0 mm 0.67 in17.0 mm
11:22 PM 59.0°F15.0°C 57.0°F13.9°C 93% Calm Calm 3.0 mph4.8 kmh 30.01 in1016.3 mb 0.00 in0.0 mm 0.00 in0.0 mm 0.67 in17.0 mm
11:27 PM 59.1°F15.1°C 57.1°F13.9°C 93% Calm Calm 2.0 mph3.2 kmh 30.01 in1016.3 mb 0.00 in0.0 mm 0.00 in0.0 mm 0.67 in17.0 mm
11:32 PM 59.1°F15.1°C 57.1°F13.9°C 93% Calm Calm -- 30.01 in1016.3 mb 0.00 in0.0 mm 0.00 in0.0 mm 0.67 in17.0 mm
11:37 PM 59.2°F15.1°C 57.2°F14.0°C 93% Calm Calm -- 30.01 in1016.3 mb 0.00 in0.0 mm 0.00 in0.0 mm 0.67 in17.0 mm
11:42 PM 59.2°F15.1°C 57.2°F14.0°C 93% Calm Calm 3.0 mph4.8 kmh 30.00 in1015.9 mb 0.00 in0.0 mm 0.00 in0.0 mm 0.67 in17.0 mm
11:47 PM 59.2°F15.1°C 57.2°F14.0°C 93% Calm Calm 1.0 mph1.6 kmh 30.00 in1015.9 mb 0.00 in0.0 mm 0.00 in0.0 mm 0.67 in17.0 mm
11:52 PM 59.2°F15.1°C 57.2°F14.0°C 93% Calm Calm 1.0 mph1.6 kmh 30.00 in1015.9 mb 0.00 in0.0 mm 0.00 in0.0 mm 0.67 in17.0 mm
11:57 PM 59.3°F15.2°C 57.3°F14.1°C 93% 2.0 mph SSE3.2 kmh SSE 3.0 mph4.8 kmh 30.01 in1016.3 mb 0.00 in0.0 mm 0.00 in0.0 mm 0.67 in17.0 mm